Amherst, TX

9:58 PM CDT on July 29, 2014 (GMT -0500)
Hale County (KPVW) Elev 3373 ft | 34.17 °N, 101.72 °W | Change Station

Current weather conditions updated 23 minutes ago

Mostly Cloudy
Mostly Cloudy
75 °F
Feels Like 75 °F
N
5
Wind Variable Wind from SE

Tomorrow is forecast to be Much Warmer than today. Showers and thunderstorms late.

Today
High -- | Low -- °F
--% Chance of Precip.
Yesterday
High -- | Low -- °F
Precip. -- in
6:58 AM 8:52 PM
Waxing Crescent, 9% visible
Pressure 30.12 in
Visibility 10.0 miles
Clouds Scattered Clouds 4900 ft
Scattered Clouds 6000 ft
Mostly Cloudy 9500 ft
Dew Point 63 °F
Humidity 66%
Rainfall 0.00 in
Snow Depth Not available.
UV 0 out of 12
Pollen 3.10 out of 12
Air Quality Not available.
Flu Activity Not available.
METAR KPVW 300235Z AUTO 13004KT 10SM SCT049 SCT060 BKN095 24/17 A3012 RMK AO2 T02400172

More Conditions Fewer Conditions

Pressure 30.12 in
Visibility 10.0 miles
Clouds Scattered Clouds 4900 ft
Scattered Clouds 6000 ft
Mostly Cloudy 9500 ft
Dew Point 63 °F
Humidity 66%
Rainfall 0.00 in
Snow Depth Not available.
UV 0 out of 12
Pollen 3.10 out of 12
Air Quality Not available.
Flu Activity Not available.
METAR KPVW 300235Z AUTO 13004KT 10SM SCT049 SCT060 BKN095 24/17 A3012 RMK AO2 T02400172

More Conditions Fewer Conditions

10-Day Weather Forecast

Almanac

Astronomy

Jul. 29, 2014 Rise Set
Actual Time 6:58 AM CDT 8:52 PM CDT
Civil Twilight 6:31 AM CDT 9:20 PM CDT
Nautical Twilight 5:57 AM CDT 9:53 PM CDT
Astronomical Twilight 5:22 AM CDT 10:29 PM CDT
Moon 9:27 AM CDT (7/29) 10:17 PM CDT (7/29)
Length of Visible Light 14h 49m
Length of Day
13h 53m
Tomorrow will be 1m 31s shorter.
Waxing Crescent, 9% of the Moon is Illuminated
Today
Waxing Crescent
Aug 3
First Quarter
Aug 10
Full
Aug 17
Last Quarter
Aug 25
New

Today's Extremes

State Highs State Lows

Community

WunderPhotos

Upload Photos

1,738,977 photos uploaded!

Nearby

Snow Depth

Station Depth Elevation
No new snow has been reported.

Earthquake Activity

City Distance Mag. Time & Date
No recent earthquake activity has been reported nearby.
Minimum magnitude displayed is 2.5.

Coastal Water Temperatures

Place Temperature
No Stations Reporting

Nearby Weather Stations

Station Location Temp. Heat Index Dew Point Humidity Wind Precip. Elev Updated Type
WT_Meso Amherst 1NE, Amherst, TX 73 °F 74 °F 64 °F 74% SE  at  6 mph 0.00 in / hr 3646 ft 8:55 PM CDT MADIS
WT_Meso Olton 6S, Olton, TX 72 °F 74 °F 63 °F 72% SE  at  4 mph 0.00 in / hr 3565 ft 8:55 PM CDT MADIS
WT_Meso Muleshoe 2S, Muleshoe, TX 72 °F 73 °F 65 °F 77% SE  at  10 mph 0.00 in / hr 3806 ft 8:55 PM CDT MADIS
WT_Meso Anton 6S, Anton, TX 73 °F 71 °F 68 °F 89% NNE  at  5 mph 0.00 in / hr 3404 ft 8:55 PM CDT MADIS

Show More Stations Show Fewer Stations